Time;durP1;ratioP1;P1;durP2;ratioP2;P2;SDS_P1;SDS_P2;PMS_P1;PMS_P2;Temp;Humidity;BMP_temperature;BMP_pressure;BME280_temperature;BME280_humidity;BME280_pressure;Samples;Min_cycle;Max_cycle;Signal;HPM_P1;HPM_P2
2023/12/18 00:01:01;;;;;;;36.63;16.40;;;7.90;99.90;;;;;;7382688;19;20093;-74
2023/12/18 00:03:32;;;;;;;44.42;14.57;;;7.90;99.90;;;;;;7404286;19;20027;-74
2023/12/18 00:06:04;;;;;;;39.88;15.48;;;7.90;99.90;;;;;;7382363;19;20014;-74
2023/12/18 00:08:32;;;;;;;32.47;15.15;;;7.90;99.90;;;;;;7382201;19;20020;-74
2023/12/18 00:11:02;;;;;;;36.63;12.27;;;7.90;99.90;;;;;;7382707;19;20016;-74
2023/12/18 00:13:31;;;;;;;92.75;14.35;;;7.90;99.90;;;;;;7382901;19;20011;-74
2023/12/18 00:15:59;;;;;;;37.60;13.00;;;7.90;99.90;;;;;;7383467;19;20090;-74
2023/12/18 00:18:28;;;;;;;100.80;15.15;;;7.90;99.90;;;;;;7407703;19;20074;-74
2023/12/18 00:20:57;;;;;;;23.98;12.05;;;7.80;99.90;;;;;;7381884;19;20015;-74
2023/12/18 00:23:28;;;;;;;25.30;12.57;;;7.80;99.90;;;;;;7382320;19;20007;-74
2023/12/18 00:25:56;;;;;;;;;;;7.80;99.90;;;;;;7382964;19;20019;-74
2023/12/18 00:28:25;;;;;;;56.83;13.02;;;7.90;99.90;;;;;;7382465;19;20139;-74
2023/12/18 00:30:54;;;;;;;31.08;13.93;;;7.90;99.90;;;;;;7382768;19;20014;-74
2023/12/18 00:33:22;;;;;;;28.08;13.27;;;7.90;99.90;;;;;;7403366;19;20426;-74
2023/12/18 00:35:51;;;;;;;26.02;13.40;;;7.90;99.90;;;;;;7381091;19;20071;-74
2023/12/18 00:38:20;;;;;;;65.10;14.60;;;8.00;99.90;;;;;;7380143;19;20411;-74
2023/12/18 00:40:51;;;;;;;34.22;13.52;;;7.90;99.90;;;;;;7379842;19;20062;-74
2023/12/18 00:43:20;;;;;;;34.13;13.93;;;8.00;99.90;;;;;;7380070;19;19999;-74
2023/12/18 00:45:48;;;;;;;26.30;13.18;;;7.80;99.90;;;;;;7379344;19;20006;-74
2023/12/18 00:48:17;;;;;;;34.75;14.50;;;7.80;99.90;;;;;;7402738;19;20002;-74
2023/12/18 00:50:46;;;;;;;30.85;12.65;;;7.80;99.90;;;;;;7379537;19;20094;-74
2023/12/18 00:53:16;;;;;;;30.25;13.60;;;7.80;99.90;;;;;;7380846;19;20023;-74
2023/12/18 00:55:45;;;;;;;31.27;12.85;;;7.80;99.90;;;;;;7380985;19;20010;-74
2023/12/18 00:58:16;;;;;;;33.08;13.98;;;7.80;99.90;;;;;;7380691;19;20002;-74
2023/12/18 01:00:44;;;;;;;47.28;12.85;;;7.80;99.90;;;;;;7380543;19;20006;-74
2023/12/18 01:03:13;;;;;;;25.25;12.85;;;7.90;99.90;;;;;;7402299;19;20011;-74
2023/12/18 01:05:42;;;;;;;27.63;12.65;;;7.90;99.90;;;;;;7381953;19;20289;-73
2023/12/18 01:08:10;;;;;;;29.90;11.60;;;7.90;99.90;;;;;;7384752;19;20047;-74
2023/12/18 01:10:39;;;;;;;57.25;14.38;;;7.90;99.90;;;;;;7384532;19;20095;-74
2023/12/18 01:13:08;;;;;;;24.63;12.45;;;8.00;99.90;;;;;;7383408;19;20010;-74
2023/12/18 01:15:39;;;;;;;33.60;12.45;;;8.00;99.90;;;;;;7406032;19;20011;-74
2023/12/18 01:18:08;;;;;;;51.95;12.07;;;8.00;99.90;;;;;;7379719;19;20070;-74
2023/12/18 01:20:36;;;;;;;24.65;11.80;;;8.10;99.90;;;;;;7379648;19;20066;-74
2023/12/18 01:23:05;;;;;;;24.80;12.23;;;8.00;99.90;;;;;;7380732;19;20007;-74
2023/12/18 01:25:34;;;;;;;28.25;12.13;;;8.00;99.90;;;;;;7380755;19;20007;-74
2023/12/18 01:28:03;;;;;;;41.28;14.77;;;8.00;99.90;;;;;;7379942;19;20027;-74
2023/12/18 01:30:31;;;;;;;42.45;12.60;;;8.00;99.90;;;;;;7401009;19;20019;-74
2023/12/18 01:33:03;;;;;;;29.67;12.15;;;7.90;99.90;;;;;;7379298;19;20063;-74
2023/12/18 01:35:32;;;;;;;33.63;11.98;;;7.90;99.90;;;;;;7378796;19;20011;-74
2023/12/18 01:38:00;;;;;;;20.48;11.15;;;7.80;99.90;;;;;;7379271;19;20069;-74
2023/12/18 01:40:29;;;;;;;51.35;11.57;;;7.90;99.90;;;;;;7379375;19;20066;-74
2023/12/18 01:42:58;;;;;;;31.65;10.90;;;7.90;99.90;;;;;;7379980;19;20417;-74
2023/12/18 01:45:26;;;;;;;18.35;10.07;;;7.90;99.90;;;;;;7400629;19;20023;-74
2023/12/18 01:47:57;;;;;;;36.78;9.80;;;7.90;99.90;;;;;;7378679;19;20027;-74
2023/12/18 01:50:28;;;;;;;20.55;10.40;;;7.70;99.90;;;;;;7378565;19;20297;-74
2023/12/18 01:52:57;;;;;;;;;;;7.60;99.90;;;;;;7379649;19;20107;-74
2023/12/18 01:55:25;;;;;;;18.50;9.00;;;7.60;99.90;;;;;;7378942;19;20255;-74
2023/12/18 01:57:54;;;;;;;19.08;9.50;;;7.60;99.90;;;;;;7379687;19;20071;-74
2023/12/18 02:00:23;;;;;;;21.60;11.02;;;7.50;99.90;;;;;;7400933;19;20014;-74
2023/12/18 02:02:51;;;;;;;38.67;10.48;;;7.60;99.90;;;;;;7378682;19;20310;-74
2023/12/18 02:05:21;;;;;;;30.08;10.15;;;7.60;99.90;;;;;;7379000;19;20521;-73
2023/12/18 02:07:53;;;;;;;61.85;10.13;;;7.40;99.90;;;;;;7379081;19;20009;-74
2023/12/18 02:10:22;;;;;;;23.95;10.25;;;7.50;99.90;;;;;;7380731;19;19999;-73
2023/12/18 02:12:50;;;;;;;32.92;9.95;;;7.50;99.90;;;;;;7378266;19;20058;-73
2023/12/18 02:15:19;;;;;;;17.48;9.52;;;7.50;99.90;;;;;;7400172;19;20010;-74
2023/12/18 02:17:48;;;;;;;24.38;10.38;;;7.50;99.90;;;;;;7378793;19;20448;-74
2023/12/18 02:20:16;;;;;;;23.15;9.73;;;7.50;99.90;;;;;;7378374;19;20024;-74
2023/12/18 02:22:55;;;;;;;23.60;10.15;;;7.50;99.90;;;;;;7378778;19;20058;-74
2023/12/18 02:25:24;;;;;;;21.77;10.50;;;7.60;99.90;;;;;;7378407;19;20240;-74
2023/12/18 02:27:53;;;;;;;37.38;10.70;;;7.60;99.90;;;;;;7378206;19;20002;-73
2023/12/18 02:30:23;;;;;;;16.55;9.18;;;7.70;99.90;;;;;;7399933;19;20054;-73
2023/12/18 02:32:53;;;;;;;32.15;10.30;;;7.70;99.90;;;;;;7379458;19;20010;-73
2023/12/18 02:35:21;;;;;;;25.55;10.13;;;7.70;99.90;;;;;;7377417;19;20003;-74
2023/12/18 02:37:50;;;;;;;18.15;9.77;;;7.60;99.90;;;;;;7377981;19;20063;-74
2023/12/18 02:40:21;;;;;;;22.52;10.35;;;7.60;99.90;;;;;;7376997;19;20464;-74
2023/12/18 02:42:50;;;;;;;;;;;7.60;99.90;;;;;;7379038;19;20058;-74
2023/12/18 02:45:18;;;;;;;18.52;8.65;;;7.70;99.90;;;;;;7398743;19;19971;-74
2023/12/18 02:47:47;;;;;;;17.60;8.68;;;7.70;99.90;;;;;;7376717;19;20016;-74
2023/12/18 02:50:16;;;;;;;21.38;9.88;;;7.60;99.90;;;;;;7377203;19;20118;-74
2023/12/18 02:52:45;;;;;;;23.45;10.77;;;7.60;99.90;;;;;;7376461;19;20383;-74
2023/12/18 02:55:14;;;;;;;24.90;10.07;;;7.60;99.90;;;;;;7378188;19;20006;-73
2023/12/18 02:57:45;;;;;;;18.17;9.68;;;7.50;99.90;;;;;;7377492;19;20066;-73
2023/12/18 03:00:15;;;;;;;19.40;10.30;;;7.60;99.90;;;;;;7396732;19;20011;-74
2023/12/18 03:02:44;;;;;;;21.83;9.48;;;7.60;99.90;;;;;;7376654;19;20019;-73
2023/12/18 03:05:13;;;;;;;18.35;9.32;;;7.60;99.90;;;;;;7377078;19;20055;-73
2023/12/18 03:07:42;;;;;;;25.25;9.52;;;7.60;99.90;;;;;;7378876;19;20238;-73
2023/12/18 03:10:11;;;;;;;17.65;9.73;;;7.70;99.90;;;;;;7385224;19;20074;-73
2023/12/18 03:12:40;;;;;;;18.35;8.80;;;7.60;99.90;;;;;;7406846;19;20016;-73
2023/12/18 03:15:12;;;;;;;15.85;8.40;;;7.60;99.90;;;;;;7385837;19;20019;-74
2023/12/18 03:17:41;;;;;;;16.85;8.98;;;7.60;99.90;;;;;;7387522;19;20011;-74
2023/12/18 03:20:10;;;;;;;18.88;9.60;;;7.60;99.90;;;;;;7386772;19;20007;-74
2023/12/18 03:22:39;;;;;;;34.97;9.15;;;7.60;99.90;;;;;;7387425;19;20400;-74
2023/12/18 03:25:08;;;;;;;147.25;12.65;;;7.60;99.90;;;;;;7387542;19;20076;-74
2023/12/18 03:27:37;;;;;;;28.88;9.40;;;7.60;99.90;;;;;;7406562;19;20099;-74
2023/12/18 03:30:07;;;;;;;70.80;11.13;;;7.60;99.90;;;;;;7383799;19;20274;-73
2023/12/18 03:32:39;;;;;;;12.23;7.25;;;7.50;99.90;;;;;;7383642;19;20007;-73
2023/12/18 03:35:09;;;;;;;12.65;7.65;;;7.30;99.90;;;;;;7383895;19;20370;-73
2023/12/18 03:37:37;;;;;;;13.00;7.05;;;7.10;99.90;;;;;;7384197;19;20010;-73
2023/12/18 03:40:08;;;;;;;17.60;8.13;;;7.10;99.90;;;;;;7382521;19;19998;-74
2023/12/18 03:42:38;;;;;;;24.77;7.97;;;7.00;99.90;;;;;;7405455;19;20044;-74
2023/12/18 03:45:09;;;;;;;14.23;7.43;;;7.00;99.90;;;;;;7382963;19;20239;-73
2023/12/18 03:47:41;;;;;;;15.55;7.43;;;7.10;99.90;;;;;;7382692;19;20007;-73
2023/12/18 03:50:10;;;;;;;19.77;9.27;;;7.00;99.90;;;;;;7383380;19;20079;-73
2023/12/18 03:52:39;;;;;;;41.50;10.15;;;7.00;99.90;;;;;;7383809;19;19999;-73
2023/12/18 03:55:09;;;;;;;39.88;8.90;;;7.10;99.90;;;;;;7382763;19;20256;-74
2023/12/18 03:57:37;;;;;;;44.42;9.02;;;7.10;99.90;;;;;;7405029;19;20011;-74
2023/12/18 04:00:07;;;;;;;20.38;8.30;;;7.00;99.90;;;;;;7380656;19;20434;-74
2023/12/18 04:02:36;;;;;;;21.95;8.68;;;7.10;99.90;;;;;;7385155;19;20358;-75
2023/12/18 04:05:09;;;;;;;38.67;7.70;;;7.00;99.90;;;;;;7383156;19;20101;-74
2023/12/18 04:07:37;;;;;;;16.80;8.18;;;7.00;99.90;;;;;;7382718;19;20007;-74
2023/12/18 04:10:07;;;;;;;18.92;8.43;;;7.00;99.90;;;;;;7382709;19;20010;-74
2023/12/18 04:12:36;;;;;;;15.95;7.85;;;7.00;99.90;;;;;;7404877;19;20024;-74
2023/12/18 04:15:05;;;;;;;18.05;9.35;;;7.10;99.90;;;;;;7381878;19;20168;-74
2023/12/18 04:17:33;;;;;;;19.77;8.00;;;7.10;99.90;;;;;;7382012;19;20023;-74
2023/12/18 04:20:02;;;;;;;19.08;7.88;;;7.10;99.90;;;;;;7379312;19;20078;-74
2023/12/18 04:22:34;;;;;;;17.35;8.68;;;7.10;99.90;;;;;;7382637;19;20003;-74
2023/12/18 04:25:02;;;;;;;16.77;9.23;;;7.00;99.90;;;;;;7382553;19;20125;-74
2023/12/18 04:27:31;;;;;;;28.15;9.20;;;7.10;99.90;;;;;;7403642;19;20032;-74
2023/12/18 04:30:00;;;;;;;12.48;7.43;;;7.20;99.90;;;;;;7381085;19;20342;-74
2023/12/18 04:32:29;;;;;;;27.27;9.68;;;7.30;99.90;;;;;;7381455;19;20002;-74
2023/12/18 04:34:57;;;;;;;19.00;7.82;;;7.30;99.90;;;;;;7381486;19;20291;-74
2023/12/18 04:37:26;;;;;;;20.42;8.88;;;7.40;99.90;;;;;;7381423;19;20020;-74
2023/12/18 04:39:57;;;;;;;19.00;7.90;;;7.40;99.90;;;;;;7380709;19;20070;-74
2023/12/18 04:42:26;;;;;;;19.95;9.35;;;7.30;99.90;;;;;;7403101;19;20019;-74
2023/12/18 04:44:55;;;;;;;27.35;8.63;;;7.30;99.90;;;;;;7380760;19;20548;-74
2023/12/18 04:47:23;;;;;;;18.52;8.35;;;7.30;99.90;;;;;;7381060;19;20007;-74
2023/12/18 04:49:52;;;;;;;14.02;8.02;;;7.20;99.90;;;;;;7381512;19;20003;-74
2023/12/18 04:52:21;;;;;;;18.10;8.65;;;7.20;99.90;;;;;;7380349;19;20003;-74
2023/12/18 04:54:50;;;;;;;17.65;8.50;;;7.30;99.90;;;;;;7381682;19;20007;-74
2023/12/18 04:57:21;;;;;;;17.88;8.48;;;7.30;99.90;;;;;;7403717;19;20358;-73
2023/12/18 04:59:50;;;;;;;13.85;8.00;;;7.30;99.90;;;;;;7380778;19;20003;-73
2023/12/18 05:02:19;;;;;;;25.08;8.30;;;7.40;99.90;;;;;;7380534;19;20355;-73
2023/12/18 05:04:47;;;;;;;16.30;9.18;;;7.40;99.90;;;;;;7380757;19;20075;-73
2023/12/18 05:07:16;;;;;;;19.90;9.32;;;7.40;99.90;;;;;;7380475;19;20010;-73
2023/12/18 05:09:45;;;;;;;18.20;8.40;;;7.50;99.90;;;;;;7377204;19;20016;-74
2023/12/18 05:12:13;;;;;;;13.77;8.18;;;7.50;99.90;;;;;;7401204;19;20427;-74
2023/12/18 05:14:45;;;;;;;19.20;8.43;;;7.50;99.90;;;;;;7379312;19;20016;-74
2023/12/18 05:17:13;;;;;;;26.38;8.05;;;7.60;99.90;;;;;;7379902;19;20062;-74
2023/12/18 05:19:42;;;;;;;24.05;8.60;;;7.50;99.90;;;;;;7379174;19;20243;-74
2023/12/18 05:22:11;;;;;;;17.08;8.43;;;7.50;99.90;;;;;;7379928;19;20002;-74
2023/12/18 05:24:39;;;;;;;18.75;9.10;;;7.50;99.90;;;;;;7405984;19;20007;-74
2023/12/18 05:27:08;;;;;;;18.67;8.85;;;7.40;99.90;;;;;;7386924;19;20070;-74
2023/12/18 05:29:37;;;;;;;26.02;8.90;;;7.40;99.90;;;;;;7388777;19;20011;-74
2023/12/18 05:32:08;;;;;;;20.83;7.22;;;7.40;99.90;;;;;;7385647;19;20003;-74
2023/12/18 05:34:37;;;;;;;26.98;7.68;;;7.40;99.90;;;;;;7383625;19;20012;-73
2023/12/18 05:37:06;;;;;;;38.80;7.47;;;7.30;99.90;;;;;;7381320;19;20062;-74
2023/12/18 05:39:35;;;;;;;16.98;7.50;;;7.30;99.90;;;;;;7401528;19;20003;-77
2023/12/18 05:42:03;;;;;;;14.55;7.43;;;7.30;99.90;;;;;;7378940;19;20366;-74
2023/12/18 05:44:32;;;;;;;33.28;7.95;;;7.20;99.90;;;;;;7379018;19;20067;-74
2023/12/18 05:47:01;;;;;;;12.30;7.07;;;7.30;99.90;;;;;;7379717;19;20011;-73
2023/12/18 05:49:32;;;;;;;13.13;6.55;;;7.10;99.90;;;;;;7379592;19;20007;-74
2023/12/18 05:52:00;;;;;;;20.27;7.97;;;7.10;99.90;;;;;;7378615;19;20036;-74
2023/12/18 05:54:31;;;;;;;28.48;7.30;;;7.10;99.90;;;;;;7401558;19;20010;-73
2023/12/18 05:57:00;;;;;;;14.98;7.80;;;7.10;99.90;;;;;;7377908;19;20015;-74
2023/12/18 05:59:29;;;;;;;13.93;7.22;;;7.10;99.90;;;;;;7377486;19;20062;-74
2023/12/18 06:01:58;;;;;;;17.30;7.47;;;7.00;99.90;;;;;;7378140;19;20087;-74
2023/12/18 06:04:27;;;;;;;20.83;7.15;;;7.00;99.90;;;;;;7378624;19;20009;-73
2023/12/18 06:06:58;;;;;;;12.70;7.00;;;7.00;99.90;;;;;;7378086;19;20014;-74
2023/12/18 06:09:27;;;;;;;27.45;8.25;;;7.00;99.90;;;;;;7399664;19;20020;-73
2023/12/18 06:11:55;;;;;;;44.78;7.88;;;7.00;99.90;;;;;;7377174;19;20007;-73
2023/12/18 06:14:24;;;;;;;19.63;7.63;;;7.10;99.90;;;;;;7378321;19;20007;-74
2023/12/18 06:16:52;;;;;;;13.75;7.35;;;7.00;99.90;;;;;;7378011;19;20417;-73
2023/12/18 06:19:21;;;;;;;13.63;7.13;;;7.10;99.90;;;;;;7377844;19;20007;-73
2023/12/18 06:21:50;;;;;;;25.75;8.40;;;7.10;99.90;;;;;;7377312;19;20702;-73
2023/12/18 06:24:21;;;;;;;14.10;7.65;;;7.00;99.90;;;;;;7399164;19;20014;-74
2023/12/18 06:26:50;;;;;;;39.25;7.60;;;6.90;99.90;;;;;;7378598;19;20036;-74
2023/12/18 06:29:18;;;;;;;15.27;7.53;;;6.80;99.90;;;;;;7379837;19;20426;-73
2023/12/18 06:31:47;;;;;;;14.52;6.63;;;6.80;99.90;;;;;;7380347;19;20010;-75
2023/12/18 06:34:16;;;;;;;12.52;6.90;;;6.90;99.90;;;;;;7378345;19;20003;-74
2023/12/18 06:36:45;;;;;;;17.58;7.30;;;6.80;99.90;;;;;;7395469;19;20062;-74
2023/12/18 06:39:14;;;;;;;21.33;7.88;;;6.80;99.90;;;;;;7399847;19;20046;-74
2023/12/18 06:41:45;;;;;;;12.27;7.38;;;6.90;99.90;;;;;;7378738;19;20066;-74
2023/12/18 06:44:14;;;;;;;14.98;7.63;;;6.90;99.90;;;;;;7385455;19;20013;-74
2023/12/18 06:46:43;;;;;;;13.10;6.97;;;6.90;99.90;;;;;;7385306;19;20024;-73
2023/12/18 06:49:11;;;;;;;16.67;8.10;;;6.90;99.90;;;;;;7385206;19;20090;-74
2023/12/18 06:51:40;;;;;;;13.32;6.85;;;7.00;99.90;;;;;;7407562;19;20015;-74
2023/12/18 06:54:09;;;;;;;15.55;7.45;;;7.00;99.90;;;;;;7383952;19;20370;-74
2023/12/18 06:56:37;;;;;;;13.88;7.82;;;7.10;99.90;;;;;;7384552;19;20020;-74
2023/12/18 06:59:08;;;;;;;14.85;6.20;;;7.10;99.90;;;;;;7384791;19;20090;-75
2023/12/18 07:01:38;;;;;;;20.40;7.35;;;6.90;99.90;;;;;;7383724;19;20130;-79
2023/12/18 07:04:07;;;;;;;13.10;7.68;;;6.80;99.90;;;;;;7389135;19;20000;-79
2023/12/18 07:12:36;;;;;;;14.43;7.05;;;6.70;99.90;;;;;;7407068;19;20006;-76
2023/12/18 07:15:17;;;;;;;12.93;7.35;;;6.80;99.90;;;;;;7383822;19;20366;-80
2023/12/18 07:17:48;;;;;;;11.18;6.53;;;6.60;99.90;;;;;;7382811;19;20251;-78
2023/12/18 07:20:16;;;;;;;10.73;6.93;;;6.70;99.90;;;;;;7383639;19;20003;-78
2023/12/18 07:22:45;;;;;;;16.58;7.90;;;6.70;99.90;;;;;;7389400;19;20010;-79
2023/12/18 07:25:14;;;;;;;14.25;8.10;;;6.70;99.90;;;;;;7387144;19;20007;-80
2023/12/18 07:27:49;;;;;;;17.55;9.13;;;6.70;99.90;;;;;;7409577;19;20015;-81
2023/12/18 07:30:21;;;;;;;31.85;8.13;;;6.70;99.90;;;;;;7393971;19;20014;-80
2023/12/18 07:32:54;;;;;;;25.15;8.25;;;6.70;99.90;;;;;;7409259;19;20039;-80
2023/12/18 07:35:23;;;;;;;15.10;8.70;;;6.70;99.90;;;;;;7409038;19;20027;-79
2023/12/18 07:37:51;;;;;;;13.07;7.32;;;6.50;99.90;;;;;;7395862;19;20374;-76
2023/12/18 07:40:21;;;;;;;14.93;7.53;;;6.60;99.90;;;;;;7389663;19;20013;-77
2023/12/18 07:42:50;;;;;;;13.82;7.65;;;6.50;99.90;;;;;;7384905;19;20006;-77
2023/12/18 07:45:21;;;;;;;17.33;8.57;;;6.50;99.90;;;;;;7403090;19;20006;-77
2023/12/18 07:47:49;;;;;;;;;;;6.40;99.90;;;;;;7384024;19;20014;-77
2023/12/18 07:50:18;;;;;;;10.77;6.70;;;6.50;99.90;;;;;;7382678;19;20325;-77
2023/12/18 07:52:47;;;;;;;14.30;7.47;;;6.50;99.90;;;;;;7383524;19;20002;-78
2023/12/18 07:55:16;;;;;;;18.45;8.70;;;6.40;99.90;;;;;;7389737;19;20023;-78
2023/12/18 07:57:45;;;;;;;19.38;9.10;;;6.40;99.90;;;;;;7413691;19;20023;-78
2023/12/18 08:00:15;;;;;;;1362.97;131.60;;;6.30;99.90;;;;;;7386630;19;20024;-79
2023/12/18 08:02:46;;;;;;;33.08;10.82;;;6.20;99.90;;;;;;7386492;19;20023;-79
2023/12/18 08:05:15;;;;;;;523.15;31.38;;;6.20;99.90;;;;;;7384857;19;20423;-79
2023/12/18 08:07:43;;;;;;;111.45;15.30;;;6.10;99.90;;;;;;7386766;19;20019;-78
2023/12/18 08:10:13;;;;;;;1999.90;207.80;;;6.10;99.90;;;;;;7386632;19;20031;-80
2023/12/18 08:12:44;;;;;;;16.88;9.35;;;6.20;99.90;;;;;;7410403;19;20007;-79
2023/12/18 08:15:12;;;;;;;21.73;8.98;;;6.10;99.90;;;;;;7391370;19;20038;-80
2023/12/18 08:20:55;;;;;;;755.15;40.97;;;6.30;99.90;;;;;;7379505;19;20017;-83
2023/12/18 08:23:45;;;;;;;733.42;42.45;;;6.30;99.90;;;;;;7384620;19;20007;-82
2023/12/18 08:29:29;;;;;;;1999.90;264.27;;;6.30;99.90;;;;;;7388530;19;20007;-79
2023/12/18 08:32:05;;;;;;;20.17;9.57;;;6.30;99.90;;;;;;7391283;19;20010;-80
2023/12/18 08:34:39;;;;;;;201.43;16.65;;;6.30;99.90;;;;;;7388119;19;20003;-79
2023/12/18 08:37:08;;;;;;;15.40;8.25;;;6.30;99.90;;;;;;7382419;19;20047;-78
2023/12/18 08:39:39;;;;;;;17.40;8.10;;;6.30;99.90;;;;;;7403911;19;20227;-79
2023/12/18 08:42:08;;;;;;;18.65;8.75;;;6.30;99.90;;;;;;7381508;19;20018;-80
2023/12/18 08:44:39;;;;;;;16.83;8.15;;;6.40;99.90;;;;;;7382488;19;20319;-79
2023/12/18 08:47:07;;;;;;;15.55;8.55;;;6.30;99.90;;;;;;7382695;19;20025;-78
2023/12/18 08:49:43;;;;;;;22.92;9.23;;;6.30;99.90;;;;;;7380420;19;20006;-79
2023/12/18 08:52:12;;;;;;;314.42;19.75;;;6.40;99.90;;;;;;7381798;19;20084;-77
2023/12/18 08:57:27;;;;;;;272.67;20.17;;;6.50;99.90;;;;;;7380161;19;20343;-78
2023/12/18 09:00:05;;;;;;;15.23;8.23;;;6.50;99.90;;;;;;7381027;19;20716;-79
2023/12/18 09:02:37;;;;;;;66.55;11.00;;;6.60;99.90;;;;;;7380845;19;20465;-80
2023/12/18 09:26:35;;;;;;;15.85;8.43;;;6.70;99.90;;;;;;7308787;19;20005;-81
2023/12/18 09:35:32;;;;;;;15.20;8.60;;;6.70;99.90;;;;;;7387424;19;19991;-80
2023/12/18 09:41:27;;;;;;;275.65;20.02;;;6.70;99.90;;;;;;7378938;19;20031;-81
2023/12/18 09:47:13;;;;;;;15.65;6.30;;;6.70;99.90;;;;;;7417022;19;20090;-83
2023/12/18 09:49:43;;;;;;;14.88;8.25;;;6.70;99.90;;;;;;7394786;19;20035;-79
2023/12/18 09:55:39;;;;;;;18.17;8.80;;;6.90;99.90;;;;;;7409992;19;20007;-78
2023/12/18 10:04:50;;;;;;;15.95;8.20;;;7.00;99.90;;;;;;7404860;19;20289;-83
2023/12/18 10:07:20;;;;;;;12.40;7.47;;;7.00;99.90;;;;;;7385368;19;20010;-80
2023/12/18 10:09:58;;;;;;;16.90;8.57;;;7.00;99.90;;;;;;7401889;19;20007;-82
2023/12/18 10:13:03;;;;;;;;;;;;;;;;;;;;;
2023/12/18 10:25:32;;;;;;;15.55;8.25;;;6.70;99.90;;;;;;7380554;19;20066;-81
2023/12/18 10:28:42;;;;;;;15.48;8.38;;;6.70;99.90;;;;;;7379231;19;20041;-81
2023/12/18 10:31:13;;;;;;;20.97;9.20;;;6.70;99.90;;;;;;7397999;19;20327;-81
2023/12/18 10:34:02;;;;;;;16.50;8.35;;;6.90;99.90;;;;;;7381433;19;20034;-82
2023/12/18 10:36:50;;;;;;;18.63;7.90;;;7.00;99.90;;;;;;7404898;19;20034;-83
2023/12/18 10:39:24;;;;;;;15.13;7.97;;;7.00;99.90;;;;;;7380691;19;20007;-80
2023/12/18 10:42:00;;;;;;;18.67;7.88;;;7.00;99.90;;;;;;7379149;19;20029;-79
2023/12/18 10:44:29;;;;;;;19.13;8.88;;;6.90;99.90;;;;;;7380414;19;20039;-80
2023/12/18 10:47:00;;;;;;;22.30;8.70;;;6.90;99.90;;;;;;7380620;19;20010;-79
2023/12/18 10:49:31;;;;;;;20.50;9.55;;;6.70;99.90;;;;;;7381091;19;20011;-79
2023/12/18 10:52:02;;;;;;;14.93;8.13;;;6.70;99.90;;;;;;7381831;19;20006;-79
2023/12/18 10:54:31;;;;;;;26.85;9.57;;;6.70;99.90;;;;;;7401721;19;20011;-78
2023/12/18 10:57:03;;;;;;;14.55;7.63;;;6.80;99.90;;;;;;7375933;19;20029;-77
2023/12/18 10:59:34;;;;;;;17.38;7.07;;;6.80;99.90;;;;;;7376906;19;20091;-76
2023/12/18 11:02:04;;;;;;;15.70;7.78;;;6.70;99.90;;;;;;7379015;19;20082;-76
2023/12/18 11:04:36;;;;;;;21.38;8.02;;;6.80;99.90;;;;;;7380656;19;20007;-80
2023/12/18 11:07:24;;;;;;;15.02;6.70;;;6.90;99.90;;;;;;7379572;19;20027;-82
2023/12/18 11:09:54;;;;;;;108.43;11.57;;;6.90;99.90;;;;;;7402954;19;20003;-81
2023/12/18 11:12:27;;;;;;;15.00;7.63;;;6.80;99.90;;;;;;7378502;19;20007;-80
2023/12/18 11:15:10;;;;;;;13.73;6.85;;;6.90;99.90;;;;;;7382877;19;20010;-79
2023/12/18 11:17:56;;;;;;;9.60;5.30;;;6.80;99.90;;;;;;7384829;19;20010;-81
2023/12/18 11:20:30;;;;;;;14.20;6.18;;;6.40;99.90;;;;;;7380612;19;20013;-78
2023/12/18 11:23:00;;;;;;;13.02;6.90;;;6.10;99.90;;;;;;7378818;19;20013;-80
2023/12/18 11:25:36;;;;;;;13.55;6.68;;;6.10;99.90;;;;;;7379892;19;20269;-80
2023/12/18 11:28:09;;;;;;;15.18;6.78;;;5.80;99.90;;;;;;7378825;19;20035;-79
2023/12/18 11:30:44;;;;;;;12.18;6.68;;;5.90;99.90;;;;;;7406930;19;20014;-79
2023/12/18 11:33:27;;;;;;;13.13;7.22;;;6.00;99.90;;;;;;7386536;19;20011;-82
2023/12/18 11:35:57;;;;;;;14.23;6.10;;;5.90;99.90;;;;;;7390238;19;20071;-78
2023/12/18 11:38:27;;;;;;;16.53;7.60;;;5.80;99.90;;;;;;7385767;19;20023;-79
2023/12/18 11:40:56;;;;;;;12.98;6.47;;;5.70;99.90;;;;;;7386727;19;20006;-77
2023/12/18 11:43:41;;;;;;;11.82;6.93;;;5.60;99.90;;;;;;7383457;19;20003;-76
2023/12/18 11:46:12;;;;;;;77.22;10.00;;;5.60;99.90;;;;;;7389121;19;20010;-79
2023/12/18 11:48:42;;;;;;;10.38;6.13;;;5.50;99.90;;;;;;7407378;19;20015;-75
2023/12/18 11:51:13;;;;;;;8.88;5.03;;;5.30;99.90;;;;;;7383244;19;20011;-75
2023/12/18 11:53:42;;;;;;;18.58;7.85;;;5.40;99.90;;;;;;7382902;19;20024;-75
2023/12/18 11:56:12;;;;;;;19.08;8.02;;;5.60;99.90;;;;;;7385173;19;20062;-75
2023/12/18 11:58:44;;;;;;;18.08;7.95;;;5.70;99.90;;;;;;7386660;19;20003;-74
2023/12/18 12:01:14;;;;;;;136.93;14.75;;;5.80;99.90;;;;;;7385776;19;20014;-74
2023/12/18 12:03:43;;;;;;;468.85;40.97;;;5.90;99.90;;;;;;7405399;19;20257;-75
2023/12/18 12:06:12;;;;;;;15.13;8.02;;;5.80;99.90;;;;;;7384108;19;20018;-75
2023/12/18 12:08:45;;;;;;;14.68;7.43;;;5.70;99.90;;;;;;7388601;19;20023;-75
2023/12/18 12:11:14;;;;;;;16.83;7.50;;;6.00;99.90;;;;;;7390842;19;20043;-75
2023/12/18 12:13:47;;;;;;;10.88;6.05;;;6.10;99.90;;;;;;7390736;19;20010;-75
2023/12/18 12:16:18;;;;;;;14.45;6.90;;;6.30;99.90;;;;;;7390118;19;20005;-75
2023/12/18 12:18:50;;;;;;;10.23;6.85;;;6.30;99.90;;;;;;7411087;19;20019;-74
2023/12/18 12:21:19;;;;;;;12.15;6.32;;;6.40;99.90;;;;;;7381620;19;20074;-74
2023/12/18 12:23:49;;;;;;;16.15;6.25;;;6.50;99.90;;;;;;7381472;19;19999;-75
2023/12/18 12:26:19;;;;;;;19.05;7.35;;;6.50;99.90;;;;;;7381557;19;20657;-74
2023/12/18 12:28:51;;;;;;;10.02;5.90;;;6.60;99.90;;;;;;7381709;19;20420;-74
2023/12/18 12:31:20;;;;;;;11.40;6.38;;;6.70;99.90;;;;;;7382147;19;20769;-74
2023/12/18 12:33:50;;;;;;;13.32;6.18;;;6.50;99.90;;;;;;7403271;19;20021;-74
2023/12/18 12:36:21;;;;;;;9.02;5.80;;;6.40;99.90;;;;;;7383262;19;20098;-74
2023/12/18 12:38:50;;;;;;;;;;;6.40;99.90;;;;;;7381782;19;20058;-74
2023/12/18 12:41:22;;;;;;;6.75;4.18;;;6.40;99.90;;;;;;7379087;19;19955;-75
2023/12/18 12:43:53;;;;;;;7.32;4.43;;;6.30;99.90;;;;;;7381213;19;20020;-75
2023/12/18 12:46:23;;;;;;;;;;;6.40;99.90;;;;;;7383192;19;20420;-74
2023/12/18 12:48:52;;;;;;;8.82;4.57;;;6.50;99.90;;;;;;7404154;19;19939;-77
2023/12/18 12:51:21;;;;;;;11.20;4.75;;;6.50;99.90;;;;;;7381669;19;20350;-76
2023/12/18 12:53:52;;;;;;;10.32;5.60;;;6.70;99.90;;;;;;7385534;19;19999;-76
2023/12/18 12:56:20;;;;;;;;;;;6.60;99.90;;;;;;7387312;19;20011;-76
2023/12/18 12:58:50;;;;;;;8.00;4.80;;;6.80;99.90;;;;;;7385955;19;19914;-78
2023/12/18 13:01:27;;;;;;;8.82;5.22;;;6.80;99.90;;;;;;7385924;19;20014;-80
2023/12/18 13:03:55;;;;;;;;;;;6.70;99.90;;;;;;7396369;19;20007;-74
2023/12/18 13:06:27;;;;;;;9.82;5.53;;;6.80;99.90;;;;;;7406557;19;19935;-77
2023/12/18 13:08:56;;;;;;;8.40;5.25;;;6.80;99.90;;;;;;7385319;19;20011;-76
2023/12/18 13:11:26;;;;;;;14.02;5.70;;;6.80;99.90;;;;;;7389892;19;20007;-77
2023/12/18 13:13:57;;;;;;;10.13;5.50;;;6.90;99.90;;;;;;7390631;19;20014;-80
2023/12/18 13:16:31;;;;;;;12.23;5.65;;;6.90;99.90;;;;;;7394415;19;20015;-81
2023/12/18 13:19:00;;;;;;;12.30;6.10;;;6.90;99.90;;;;;;7393122;19;20030;-80
2023/12/18 13:21:40;;;;;;;12.73;6.65;;;7.00;99.90;;;;;;7417994;19;20011;-80
2023/12/18 13:24:09;;;;;;;9.18;4.95;;;7.00;99.90;;;;;;7395783;19;20260;-80
2023/12/18 13:27:23;;;;;;;10.85;6.03;;;7.00;99.90;;;;;;7393226;19;20011;-82
2023/12/18 13:29:52;;;;;;;10.60;5.50;;;7.10;99.90;;;;;;7393524;19;20006;-77
2023/12/18 13:33:03;;;;;;;7.97;4.97;;;7.20;99.90;;;;;;7391327;19;20007;-80
2023/12/18 13:35:34;;;;;;;14.52;5.93;;;7.20;99.90;;;;;;7391942;19;20031;-80
2023/12/18 13:38:04;;;;;;;11.13;4.38;;;7.10;99.90;;;;;;7393368;19;20014;-80
2023/12/18 13:40:33;;;;;;;9.90;5.38;;;7.10;99.90;;;;;;7394600;19;20353;-79
2023/12/18 13:43:28;;;;;;;8.60;4.93;;;7.00;99.90;;;;;;7388598;19;20342;-81
2023/12/18 13:46:15;;;;;;;8.48;5.15;;;7.10;99.90;;;;;;7389026;19;20043;-84
2023/12/18 13:48:46;;;;;;;14.10;5.45;;;7.00;99.90;;;;;;7412665;19;20006;-80
2023/12/18 13:51:26;;;;;;;11.50;5.60;;;7.00;99.90;;;;;;7393362;19;20010;-80
2023/12/18 13:53:57;;;;;;;8.65;5.30;;;7.00;99.90;;;;;;7396276;19;20007;-80
2023/12/18 14:00:50;;;;;;;7.50;4.35;;;7.10;99.90;;;;;;7392640;19;20055;-80
2023/12/18 14:07:13;;;;;;;;;;;;;;;;;;;;;
2023/12/18 14:09:42;;;;;;;8.30;4.93;;;7.00;99.90;;;;;;7362685;19;20886;-80
2023/12/18 14:18:34;;;;;;;10.98;4.13;;;7.00;99.90;;;;;;7385215;19;20378;-80
2023/12/18 14:21:10;;;;;;;9.55;4.80;;;7.00;99.90;;;;;;7384634;19;20011;-81
2023/12/18 14:36:18;;;;;;;10.13;5.40;;;7.30;99.90;;;;;;7465824;19;20372;-80
2023/12/18 14:41:23;;;;;;;127.78;9.63;;;7.20;99.90;;;;;;7393934;19;20014;-79
2023/12/18 14:43:52;;;;;;;9.30;5.80;;;7.30;99.90;;;;;;7440966;19;20030;-80
2023/12/18 14:50:09;;;;;;;11.85;5.82;;;7.40;99.90;;;;;;7413056;19;20033;-80